createdAt,value
2022-08-25T00:00:13.506Z,101486.94
2022-08-25T00:02:06.459Z,101490.56
2022-08-25T00:03:39.593Z,101487.28
2022-08-25T00:05:13.811Z,101487.44
2022-08-25T00:06:47.584Z,101482.25
2022-08-25T00:08:19.269Z,101483.28
2022-08-25T00:09:51.215Z,101486.22
2022-08-25T00:11:24.000Z,101490.03
2022-08-25T00:12:55.743Z,101490.19
2022-08-25T00:14:30.655Z,101484.06
2022-08-25T00:16:02.537Z,101483.13
2022-08-25T00:17:34.320Z,101476.91
2022-08-25T00:19:07.903Z,101484.84
2022-08-25T00:20:39.690Z,101483.03
2022-08-25T00:22:15.128Z,101481.31
2022-08-25T00:23:46.893Z,101484.06
2022-08-25T00:25:18.920Z,101483.13
2022-08-25T00:26:51.746Z,101488.38
2022-08-25T00:28:23.888Z,101479.41
2022-08-25T00:29:55.644Z,101477.59
2022-08-25T00:31:38.464Z,101482.84
2022-08-25T00:33:11.373Z,101482.84
2022-08-25T00:34:43.158Z,101485.53
2022-08-25T00:36:15.867Z,101490.88
2022-08-25T00:37:47.618Z,101490.88
2022-08-25T00:39:21.253Z,101494.34
2022-08-25T00:41:06.134Z,101490.72
2022-08-25T00:42:38.613Z,101497.03
2022-08-25T00:44:11.579Z,101492.63
2022-08-25T00:45:43.347Z,101489.94
2022-08-25T00:47:15.085Z,101492.63
2022-08-25T00:48:48.080Z,101490.03
2022-08-25T00:50:20.009Z,101491.75
2022-08-25T00:51:54.247Z,101500.81
2022-08-25T00:53:25.949Z,101497.38
2022-08-25T00:55:07.867Z,101492.09
2022-08-25T00:56:39.926Z,101492.09
2022-08-25T00:58:14.661Z,101496.59
2022-08-25T00:59:46.492Z,101501.06
2022-08-25T01:01:18.481Z,101496.75
2022-08-25T01:02:50.821Z,101501.34
2022-08-25T01:04:22.774Z,101495.13
2022-08-25T01:05:54.905Z,101496.94
2022-08-25T01:07:26.733Z,101504.19
2022-08-25T01:08:58.814Z,101501.59
2022-08-25T01:10:30.722Z,101500.91
2022-08-25T01:12:02.624Z,101496.41
2022-08-25T01:13:37.314Z,101497.44
2022-08-25T01:15:10.142Z,101498.41
2022-08-25T01:16:43.897Z,101498.47
2022-08-25T01:18:15.734Z,101507.47
2022-08-25T01:19:47.748Z,101498.66
2022-08-25T01:21:20.304Z,101498.75
2022-08-25T01:22:55.039Z,101496.16
2022-08-25T01:24:31.645Z,101498.81
2022-08-25T01:26:13.400Z,101497.09
2022-08-25T01:27:45.210Z,101493.66
2022-08-25T01:29:22.802Z,101501.75
2022-08-25T01:30:54.662Z,101502.78
2022-08-25T01:32:27.790Z,101496.50
2022-08-25T01:33:59.737Z,101508.13
2022-08-25T01:35:31.572Z,101504.63
2022-08-25T01:37:03.769Z,101504.78
2022-08-25T01:38:35.518Z,101503.91
2022-08-25T01:40:07.630Z,101504.94
2022-08-25T01:41:51.324Z,101504.09
2022-08-25T01:43:30.931Z,101505.97
2022-08-25T01:45:02.748Z,101510.47
2022-08-25T01:46:34.949Z,101504.25
2022-08-25T01:48:07.484Z,101505.97
2022-08-25T01:49:39.303Z,101501.41
2022-08-25T01:51:11.029Z,101504.78
2022-08-25T01:52:55.760Z,101506.69
2022-08-25T01:54:27.543Z,101501.41
2022-08-25T01:56:02.742Z,101500.53
2022-08-25T01:57:35.673Z,101499.78
2022-08-25T01:59:07.382Z,101500.72
2022-08-25T02:00:39.112Z,101493.56
2022-08-25T02:02:10.966Z,101502.44
2022-08-25T02:03:43.770Z,101506.94
2022-08-25T02:05:18.491Z,101503.47
2022-08-25T02:06:54.681Z,101502.59
2022-08-25T02:08:26.463Z,101504.59
2022-08-25T02:09:58.777Z,101504.66
2022-08-25T02:11:35.994Z,101496.91
2022-08-25T02:13:08.659Z,101502.50
2022-08-25T02:14:40.840Z,101505.41
2022-08-25T02:16:15.638Z,101502.91
2022-08-25T02:17:47.331Z,101497.63
2022-08-25T02:19:19.656Z,101494.19
2022-08-25T02:20:51.465Z,101497.63
2022-08-25T02:22:23.663Z,101502.19
2022-08-25T02:23:55.526Z,101498.75
2022-08-25T02:25:27.305Z,101499.63
2022-08-25T02:26:59.581Z,101497.88
2022-08-25T02:28:31.316Z,101496.25
2022-08-25T02:30:04.481Z,101504.34
2022-08-25T02:31:36.357Z,101499.06
2022-08-25T02:33:08.927Z,101503.56
2022-08-25T02:34:41.698Z,101502.69
2022-08-25T02:36:14.468Z,101505.38
2022-08-25T02:37:46.205Z,101495.63
2022-08-25T02:39:17.965Z,101500.19
2022-08-25T02:40:50.715Z,101501.13
2022-08-25T02:42:22.606Z,101495.91
2022-08-25T02:43:55.362Z,101500.38
2022-08-25T02:45:27.213Z,101490.66
2022-08-25T02:46:59.152Z,101498.75
2022-08-25T02:48:31.127Z,101490.81
2022-08-25T02:50:04.589Z,101495.22
2022-08-25T02:51:36.758Z,101490.81
2022-08-25T02:53:08.506Z,101485.53
2022-08-25T02:54:40.417Z,101490.09
2022-08-25T02:56:12.148Z,101492.78
2022-08-25T02:57:44.010Z,101497.25
2022-08-25T02:59:15.799Z,101488.38
2022-08-25T03:00:51.426Z,101487.44
2022-08-25T03:02:23.269Z,101484.84
2022-08-25T03:03:55.089Z,101481.38
2022-08-25T03:05:27.029Z,101486.66
2022-08-25T03:06:59.294Z,101484.91
2022-08-25T03:08:31.033Z,101483.97
2022-08-25T03:10:13.598Z,101477.69
2022-08-25T03:11:46.131Z,101477.78
2022-08-25T03:13:18.138Z,101479.56
2022-08-25T03:14:49.895Z,101477.00
2022-08-25T03:16:22.176Z,101472.59
2022-08-25T03:17:54.636Z,101476.25
2022-08-25T03:19:26.774Z,101478.91
2022-08-25T03:20:58.624Z,101475.38
2022-08-25T03:22:30.391Z,101480.88
2022-08-25T03:24:02.150Z,101481.13
2022-08-25T03:26:06.086Z,101473.34
2022-08-25T03:27:37.841Z,101466.53
2022-08-25T03:29:10.565Z,101475.63
2022-08-25T03:30:42.519Z,101473.91
2022-08-25T03:32:14.204Z,101464.31
2022-08-25T03:33:46.393Z,101470.59
2022-08-25T03:35:18.208Z,101464.41
2022-08-25T03:36:51.911Z,101464.31
2022-08-25T03:38:24.068Z,101461.72
2022-08-25T03:39:55.823Z,101461.81
2022-08-25T03:41:34.909Z,101452.94
2022-08-25T03:43:06.659Z,101453.00
2022-08-25T03:44:38.320Z,101454.88
2022-08-25T03:46:10.562Z,101457.63
2022-08-25T03:47:42.589Z,101445.22
2022-08-25T03:49:18.647Z,101452.34
2022-08-25T03:50:51.702Z,101450.72
2022-08-25T03:52:23.874Z,101450.78
2022-08-25T03:53:55.782Z,101445.44
2022-08-25T03:55:34.083Z,101451.72
2022-08-25T03:57:06.548Z,101449.22
2022-08-25T03:58:38.448Z,101447.47
2022-08-25T04:00:10.534Z,101444.03
2022-08-25T04:01:45.906Z,101444.03
2022-08-25T04:03:18.032Z,101436.97
2022-08-25T04:04:50.535Z,101437.81
2022-08-25T04:06:22.601Z,101440.50
2022-08-25T04:07:54.397Z,101437.91
2022-08-25T04:09:26.315Z,101441.59
2022-08-25T04:10:58.391Z,101444.25
2022-08-25T04:12:30.135Z,101439.00
2022-08-25T04:14:03.435Z,101439.06
2022-08-25T04:15:35.279Z,101431.16
2022-08-25T04:17:06.965Z,101441.81
2022-08-25T04:18:39.187Z,101434.75
2022-08-25T04:20:14.050Z,101435.69
2022-08-25T04:21:46.254Z,101439.22
2022-08-25T04:23:18.098Z,101439.31
2022-08-25T04:24:50.014Z,101438.38
2022-08-25T04:26:26.086Z,101433.19
2022-08-25T04:27:57.976Z,101437.66
2022-08-25T04:29:29.763Z,101440.31
2022-08-25T04:31:01.579Z,101448.34
2022-08-25T04:32:33.515Z,101446.53
2022-08-25T04:34:14.800Z,101446.53
2022-08-25T04:35:57.217Z,101442.06
2022-08-25T04:37:28.968Z,101442.91
2022-08-25T04:39:00.739Z,101443.78
2022-08-25T04:40:32.706Z,101450.94
2022-08-25T04:42:04.628Z,101445.59
2022-08-25T04:43:38.637Z,101438.44
2022-08-25T04:45:10.444Z,101442.91
2022-08-25T04:46:42.276Z,101446.44
2022-08-25T04:48:14.085Z,101443.00
2022-08-25T04:49:45.878Z,101438.59
2022-08-25T04:51:19.198Z,101444.00
2022-08-25T04:52:50.978Z,101450.28
2022-08-25T04:54:23.277Z,101450.38
2022-08-25T04:55:55.014Z,101447.78
2022-08-25T04:57:26.808Z,101444.16
2022-08-25T04:59:01.577Z,101441.50
2022-08-25T05:00:34.534Z,101442.44
2022-08-25T05:02:06.836Z,101444.28
2022-08-25T05:03:38.646Z,101441.78
2022-08-25T05:05:10.445Z,101440.97
2022-08-25T05:06:42.941Z,101436.66
2022-08-25T05:08:16.807Z,101440.34
2022-08-25T05:09:48.504Z,101441.34
2022-08-25T05:11:23.552Z,101433.34
2022-08-25T05:12:55.657Z,101436.06
2022-08-25T05:14:27.521Z,101432.53
2022-08-25T05:16:00.471Z,101430.72
2022-08-25T05:17:32.979Z,101425.41
2022-08-25T05:19:05.027Z,101421.00
2022-08-25T05:20:37.788Z,101426.41
2022-08-25T05:22:10.459Z,101424.75
2022-08-25T05:23:42.361Z,101423.97
2022-08-25T05:25:14.874Z,101423.19
2022-08-25T05:26:46.703Z,101431.25
2022-08-25T05:28:19.695Z,101434.06
2022-08-25T05:29:51.469Z,101439.41
2022-08-25T05:31:23.967Z,101435.88
2022-08-25T05:32:55.910Z,101436.81
2022-08-25T05:34:30.306Z,101436.81
2022-08-25T05:36:02.474Z,101442.94
2022-08-25T05:37:34.376Z,101429.59
2022-08-25T05:39:06.271Z,101438.47
2022-08-25T05:40:38.198Z,101435.81
2022-08-25T05:42:09.980Z,101448.19
2022-08-25T05:43:42.007Z,101442.94
2022-08-25T05:45:20.291Z,101439.41
2022-08-25T05:46:52.645Z,101451.09
2022-08-25T05:48:24.937Z,101452.81
2022-08-25T05:49:56.814Z,101451.88
2022-08-25T05:51:30.967Z,101454.56
2022-08-25T05:53:02.912Z,101458.94
2022-08-25T05:54:34.715Z,101458.94
2022-08-25T05:56:06.690Z,101459.75
2022-08-25T05:57:38.511Z,101457.06
2022-08-25T05:59:12.177Z,101462.34
2022-08-25T06:00:44.002Z,101460.53
2022-08-25T06:02:34.449Z,101461.41
2022-08-25T06:04:06.648Z,101462.25
2022-08-25T06:05:38.576Z,101459.50
2022-08-25T06:07:10.460Z,101467.50
2022-08-25T06:08:42.988Z,101464.78
2022-08-25T06:10:15.111Z,101462.91
2022-08-25T06:11:49.705Z,101459.28
2022-08-25T06:13:28.862Z,101454.75
2022-08-25T06:15:00.849Z,101457.28
2022-08-25T06:16:33.140Z,101457.22
2022-08-25T06:18:05.385Z,101450.88
2022-08-25T06:19:37.197Z,101457.00
2022-08-25T06:21:13.530Z,101455.13
2022-08-25T06:22:45.390Z,101455.91
2022-08-25T06:24:17.242Z,101459.41
2022-08-25T06:25:49.747Z,101453.91
2022-08-25T06:27:22.151Z,101449.34
2022-08-25T06:28:54.080Z,101455.47
2022-08-25T06:30:28.632Z,101452.81
2022-08-25T06:32:01.102Z,101449.97
2022-08-25T06:33:33.016Z,101456.13
2022-08-25T06:35:05.235Z,101463.03
2022-08-25T06:36:37.068Z,101461.84
2022-08-25T06:38:08.837Z,101464.44
2022-08-25T06:39:40.679Z,101463.44
2022-08-25T06:41:12.833Z,101460.53
2022-08-25T06:42:48.459Z,101464.75
2022-08-25T06:44:21.295Z,101463.69
2022-08-25T06:45:53.072Z,101463.53
2022-08-25T06:47:25.056Z,101467.69
2022-08-25T06:48:57.689Z,101459.44
2022-08-25T06:50:29.617Z,101470.69
2022-08-25T06:52:01.333Z,101462.44
2022-08-25T06:53:33.121Z,101459.59
2022-08-25T06:55:06.876Z,101455.69
2022-08-25T06:56:40.073Z,101452.69
2022-08-25T06:58:12.119Z,101452.38
2022-08-25T06:59:43.889Z,101454.66
2022-08-25T07:01:20.017Z,101446.41
2022-08-25T07:02:52.227Z,101447.78
2022-08-25T07:04:25.365Z,101440.38
2022-08-25T07:05:57.907Z,101441.00
2022-08-25T07:07:43.053Z,101442.47
2022-08-25T07:09:16.061Z,101446.53
2022-08-25T07:10:48.195Z,101435.50
2022-08-25T07:12:20.831Z,101430.84
2022-08-25T07:13:52.756Z,101437.75
2022-08-25T07:15:24.578Z,101438.25
2022-08-25T07:16:56.344Z,101437.91
2022-08-25T07:18:28.448Z,101442.56
2022-08-25T07:20:00.332Z,101438.56
2022-08-25T07:21:35.679Z,101443.41
2022-08-25T07:23:07.827Z,101437.19
2022-08-25T07:24:39.585Z,101436.56
2022-08-25T07:26:27.166Z,101432.50
2022-08-25T07:28:04.271Z,101433.97
2022-08-25T07:29:42.298Z,101432.75
2022-08-25T07:31:14.634Z,101416.97
2022-08-25T07:32:46.455Z,101430.69
2022-08-25T07:34:45.511Z,101429.66
2022-08-25T07:36:24.396Z,101433.69
2022-08-25T07:37:59.008Z,101444.50
2022-08-25T07:39:31.407Z,101433.59
2022-08-25T07:41:04.035Z,101432.44
2022-08-25T07:42:36.185Z,101427.47
2022-08-25T07:44:10.653Z,101428.00
2022-08-25T07:45:49.091Z,101432.13
2022-08-25T07:47:21.624Z,101430.28
2022-08-25T07:48:54.890Z,101430.88
2022-08-25T07:50:26.928Z,101431.34
2022-08-25T07:52:05.707Z,101425.44
2022-08-25T07:53:38.462Z,101423.13
2022-08-25T07:55:11.189Z,101420.81
2022-08-25T07:56:43.910Z,101420.22
2022-08-25T07:58:16.071Z,101420.81
2022-08-25T07:59:48.156Z,101416.84
2022-08-25T08:01:23.794Z,101423.59
2022-08-25T08:02:56.569Z,101421.28
2022-08-25T08:04:28.440Z,101425.97
2022-08-25T08:06:01.111Z,101426.41
2022-08-25T08:07:43.047Z,101421.50
2022-08-25T08:09:16.396Z,101417.66
2022-08-25T08:11:03.161Z,101416.94
2022-08-25T08:12:36.420Z,101417.19
2022-08-25T08:14:08.581Z,101414.56
2022-08-25T08:15:42.246Z,101421.91
2022-08-25T08:17:14.193Z,101409.66
2022-08-25T08:18:48.131Z,101408.91
2022-08-25T08:20:23.281Z,101412.16
2022-08-25T08:21:55.449Z,101408.31
2022-08-25T08:23:30.057Z,101404.13
2022-08-25T08:25:02.052Z,101398.22
2022-08-25T08:26:48.548Z,101402.31
2022-08-25T08:28:27.964Z,101401.22
2022-08-25T08:29:59.714Z,101393.47
2022-08-25T08:31:31.443Z,101390.03
2022-08-25T08:33:10.093Z,101392.72
2022-08-25T08:34:43.425Z,101388.28
2022-08-25T08:36:16.179Z,101376.88
2022-08-25T08:37:48.235Z,101377.03
2022-08-25T08:39:24.657Z,101386.03
2022-08-25T08:41:22.925Z,101383.22
2022-08-25T08:43:17.930Z,101382.72
2022-08-25T08:45:02.005Z,101387.41
2022-08-25T08:46:41.360Z,101378.81
2022-08-25T08:48:13.137Z,101379.13
2022-08-25T08:50:04.033Z,101378.44
2022-08-25T08:51:38.676Z,101375.91
2022-08-25T08:53:11.637Z,101376.72
2022-08-25T08:54:43.340Z,101377.97
2022-08-25T08:56:17.738Z,101383.59
2022-08-25T08:57:51.938Z,101383.50
2022-08-25T08:59:30.259Z,101384.34
2022-08-25T09:01:03.200Z,101377.50
2022-08-25T09:02:52.562Z,101384.91
2022-08-25T09:04:33.670Z,101381.59
2022-08-25T09:06:31.693Z,101384.22
2022-08-25T09:08:06.114Z,101383.09
2022-08-25T09:09:37.967Z,101374.88
2022-08-25T09:11:16.136Z,101376.41
2022-08-25T09:12:55.407Z,101377.09
2022-08-25T09:14:42.424Z,101380.03
2022-08-25T09:16:38.690Z,101373.91
2022-08-25T09:18:17.357Z,101378.03
2022-08-25T09:19:55.316Z,101368.97
2022-08-25T09:21:30.408Z,101373.97
2022-08-25T09:23:08.190Z,101372.84
2022-08-25T09:24:45.908Z,101368.19
2022-08-25T09:26:21.192Z,101372.81
2022-08-25T09:27:59.728Z,101360.25
2022-08-25T09:29:51.805Z,101367.03
2022-08-25T09:31:29.789Z,101356.88
2022-08-25T09:33:05.136Z,101369.53
2022-08-25T09:34:37.438Z,101368.34
2022-08-25T09:36:09.281Z,101361.03
2022-08-25T09:37:41.375Z,101361.03
2022-08-25T09:39:13.642Z,101365.66
2022-08-25T09:40:47.478Z,101358.44
2022-08-25T09:42:23.897Z,101363.28
2022-08-25T09:43:55.901Z,101353.66
2022-08-25T09:45:32.213Z,101353.97
2022-08-25T09:47:03.926Z,101351.97
2022-08-25T09:48:46.600Z,101351.91
2022-08-25T09:50:20.345Z,101352.16
2022-08-25T09:51:52.736Z,101349.59
2022-08-25T09:53:24.954Z,101351.84
2022-08-25T09:54:57.513Z,101346.84
2022-08-25T09:56:31.954Z,101352.13
2022-08-25T09:58:09.557Z,101350.97
2022-08-25T09:59:41.450Z,101344.28
2022-08-25T10:01:29.581Z,101340.44
2022-08-25T10:03:12.682Z,101342.03
2022-08-25T10:04:44.432Z,101334.69
2022-08-25T10:06:18.649Z,101331.94
2022-08-25T10:07:59.346Z,101329.03
2022-08-25T10:09:54.479Z,101329.09
2022-08-25T10:11:34.061Z,101318.81
2022-08-25T10:13:12.846Z,101326.09
2022-08-25T10:14:44.980Z,101317.41
2022-08-25T10:16:36.458Z,101321.69
2022-08-25T10:18:20.741Z,101308.84
2022-08-25T10:19:53.291Z,101310.38
2022-08-25T10:21:25.053Z,101316.50
2022-08-25T10:23:10.358Z,101317.94
2022-08-25T10:24:43.873Z,101319.94
2022-08-25T10:26:34.835Z,101317.75
2022-08-25T10:28:07.586Z,101316.75
2022-08-25T10:29:40.842Z,101315.38
2022-08-25T10:31:18.847Z,101311.75
2022-08-25T10:33:02.595Z,101314.38
2022-08-25T10:34:44.461Z,101302.44
2022-08-25T10:36:23.848Z,101303.56
2022-08-25T10:37:58.714Z,101305.22
2022-08-25T10:39:41.560Z,101300.66
2022-08-25T10:41:16.803Z,101302.59
2022-08-25T10:43:02.439Z,101300.19
2022-08-25T10:45:02.487Z,101299.59
2022-08-25T10:46:39.104Z,101296.66
2022-08-25T10:48:17.355Z,101297.91
2022-08-25T10:49:50.448Z,101297.00
2022-08-25T10:51:41.151Z,101285.81
2022-08-25T10:53:13.503Z,101287.38
2022-08-25T10:54:59.330Z,101277.91
2022-08-25T10:56:36.948Z,101283.63
2022-08-25T10:58:16.418Z,101269.03
2022-08-25T10:59:48.302Z,101269.06
2022-08-25T11:01:20.035Z,101257.44
2022-08-25T11:03:06.870Z,101257.16
2022-08-25T11:04:42.147Z,101254.72
2022-08-25T11:06:18.984Z,101262.56
2022-08-25T11:07:54.049Z,101258.63
2022-08-25T11:09:28.452Z,101258.09
2022-08-25T11:11:02.527Z,101256.66
2022-08-25T11:12:38.733Z,101262.53
2022-08-25T11:14:19.076Z,101262.03
2022-08-25T11:16:13.649Z,101261.84
2022-08-25T11:18:00.248Z,101255.88
2022-08-25T11:19:38.440Z,101259.47
2022-08-25T11:21:11.824Z,101253.13
2022-08-25T11:22:50.920Z,101248.41
2022-08-25T11:24:36.134Z,101250.59
2022-08-25T11:26:13.310Z,101253.38
2022-08-25T11:28:03.537Z,101248.66
2022-08-25T11:29:36.983Z,101255.69
2022-08-25T11:31:11.350Z,101257.72
2022-08-25T11:32:44.792Z,101254.59
2022-08-25T11:34:19.538Z,101248.25
2022-08-25T11:35:59.724Z,101248.34
2022-08-25T11:37:32.422Z,101249.59
2022-08-25T11:39:23.144Z,101236.94
2022-08-25T11:40:59.650Z,101235.59
2022-08-25T11:42:38.276Z,101238.53
2022-08-25T11:44:17.082Z,101234.28
2022-08-25T11:45:55.103Z,101237.53
2022-08-25T11:47:45.445Z,101238.94
2022-08-25T11:49:23.546Z,101230.38
2022-08-25T11:50:58.399Z,101233.75
2022-08-25T11:52:32.919Z,101226.44
2022-08-25T11:54:12.579Z,101218.94
2022-08-25T11:55:46.567Z,101219.13
2022-08-25T11:57:20.171Z,101214.75
2022-08-25T11:58:52.315Z,101216.63
2022-08-25T12:00:39.412Z,101221.38
2022-08-25T12:02:28.296Z,101213.06
2022-08-25T12:04:19.015Z,101208.50
2022-08-25T12:05:52.503Z,101211.63
2022-08-25T12:07:25.511Z,101213.13
2022-08-25T12:09:00.043Z,101205.00
2022-08-25T12:10:52.230Z,101204.22
2022-08-25T12:12:30.166Z,101206.94
2022-08-25T12:14:18.296Z,101205.19
2022-08-25T12:15:50.083Z,101203.97
2022-08-25T12:17:25.791Z,101192.97
2022-08-25T12:19:17.516Z,101203.63
2022-08-25T12:20:55.301Z,101189.72
2022-08-25T12:22:32.556Z,101194.22
2022-08-25T12:24:07.902Z,101189.84
2022-08-25T12:25:39.901Z,101183.38
2022-08-25T12:27:34.310Z,101187.41
2022-08-25T12:29:15.111Z,101184.00
2022-08-25T12:30:50.603Z,101189.31
2022-08-25T12:32:40.779Z,101181.34
2022-08-25T12:34:26.850Z,101183.38
2022-08-25T12:35:59.212Z,101185.63
2022-08-25T12:37:31.379Z,101180.00
2022-08-25T12:39:17.875Z,101177.63
2022-08-25T12:40:50.153Z,101177.78
2022-08-25T12:42:26.416Z,101175.22
2022-08-25T12:44:17.314Z,101172.66
2022-08-25T12:45:53.122Z,101168.75
2022-08-25T12:47:27.364Z,101174.38
2022-08-25T12:49:21.003Z,101177.44
2022-08-25T12:51:15.778Z,101168.78
2022-08-25T12:52:47.628Z,101172.00
2022-08-25T12:54:24.694Z,101171.53
2022-08-25T12:56:08.845Z,101177.13
2022-08-25T12:57:46.248Z,101174.19
2022-08-25T12:59:19.618Z,101173.84
2022-08-25T13:00:57.978Z,101176.81
2022-08-25T13:02:37.650Z,101175.56
2022-08-25T13:04:13.768Z,101175.75
2022-08-25T13:06:02.196Z,101168.44
2022-08-25T13:07:42.815Z,101167.25
2022-08-25T13:09:14.673Z,101165.72
2022-08-25T13:10:46.352Z,101159.44
2022-08-25T13:12:20.228Z,101162.69
2022-08-25T13:13:55.437Z,101160.19
2022-08-25T13:15:38.477Z,101159.50
2022-08-25T13:17:10.526Z,101161.06
2022-08-25T13:18:42.443Z,101163.25
2022-08-25T13:20:24.114Z,101158.09
2022-08-25T13:21:56.272Z,101156.03
2022-08-25T13:23:29.255Z,101156.22
2022-08-25T13:25:01.198Z,101144.81
2022-08-25T13:26:48.219Z,101148.22
2022-08-25T13:28:21.873Z,101142.13
2022-08-25T13:29:55.223Z,101140.31
2022-08-25T13:31:30.251Z,101141.50
2022-08-25T13:33:20.521Z,101144.22
2022-08-25T13:34:54.447Z,101141.53
2022-08-25T13:36:52.078Z,101137.94
2022-08-25T13:38:28.438Z,101135.38
2022-08-25T13:40:07.460Z,101129.53
2022-08-25T13:41:49.777Z,101127.97
2022-08-25T13:43:27.806Z,101126.44
2022-08-25T13:44:59.588Z,101128.50
2022-08-25T13:46:32.450Z,101123.56
2022-08-25T13:48:07.884Z,101125.22
2022-08-25T13:49:56.610Z,101114.31
2022-08-25T13:51:31.105Z,101122.34
2022-08-25T13:53:23.029Z,101123.59
2022-08-25T13:55:00.980Z,101126.53
2022-08-25T13:56:41.473Z,101124.50
2022-08-25T13:58:15.216Z,101115.28
2022-08-25T13:59:58.539Z,101109.84
2022-08-25T14:01:48.499Z,101102.69
2022-08-25T14:03:39.266Z,101107.78
2022-08-25T14:05:29.815Z,101104.38
2022-08-25T14:07:20.403Z,101104.91
2022-08-25T14:08:54.790Z,101098.75
2022-08-25T14:10:35.452Z,101095.69
2022-08-25T14:12:10.358Z,101103.88
2022-08-25T14:13:45.486Z,101094.69
2022-08-25T14:15:17.290Z,101099.25
2022-08-25T14:16:50.534Z,101100.66
2022-08-25T14:18:28.284Z,101099.97
2022-08-25T14:20:00.208Z,101102.34
2022-08-25T14:21:33.153Z,101105.25
2022-08-25T14:23:07.876Z,101096.72
2022-08-25T14:24:42.179Z,101098.59
2022-08-25T14:26:14.726Z,101093.84
2022-08-25T14:28:06.385Z,101087.16
2022-08-25T14:29:41.212Z,101086.28
2022-08-25T14:31:15.059Z,101096.16
2022-08-25T14:32:46.804Z,101091.91
2022-08-25T14:34:26.458Z,101086.28
2022-08-25T14:36:02.644Z,101090.59
2022-08-25T14:37:34.767Z,101089.56
2022-08-25T14:39:08.881Z,101080.53
2022-08-25T14:40:41.000Z,101080.72
2022-08-25T14:42:13.357Z,101082.91
2022-08-25T14:43:45.457Z,101082.94
2022-08-25T14:45:17.752Z,101081.75
2022-08-25T14:46:50.735Z,101092.97
2022-08-25T14:48:27.248Z,101080.81
2022-08-25T14:49:59.111Z,101082.88
2022-08-25T14:51:32.693Z,101076.78
2022-08-25T14:53:04.557Z,101084.31
2022-08-25T14:54:37.667Z,101078.50
2022-08-25T14:56:10.435Z,101075.94
2022-08-25T14:57:42.392Z,101084.06
2022-08-25T14:59:14.368Z,101076.72
2022-08-25T15:00:46.411Z,101080.47
2022-08-25T15:02:20.323Z,101075.38
2022-08-25T15:03:53.002Z,101073.50
2022-08-25T15:05:28.309Z,101073.69
2022-08-25T15:07:01.345Z,101072.16
2022-08-25T15:08:53.259Z,101068.22
2022-08-25T15:10:25.933Z,101065.66
2022-08-25T15:11:58.207Z,101061.25
2022-08-25T15:13:29.972Z,101069.28
2022-08-25T15:15:02.905Z,101066.22
2022-08-25T15:16:35.500Z,101067.94
2022-08-25T15:18:07.473Z,101065.53
2022-08-25T15:19:39.344Z,101057.22
2022-08-25T15:21:11.043Z,101063.84
2022-08-25T15:22:42.878Z,101062.50
2022-08-25T15:24:17.346Z,101058.25
2022-08-25T15:25:52.658Z,101062.50
2022-08-25T15:27:24.790Z,101060.97
2022-08-25T15:29:02.777Z,101061.47
2022-08-25T15:30:35.221Z,101057.72
2022-08-25T15:32:07.363Z,101059.75
2022-08-25T15:33:39.413Z,101057.34
2022-08-25T15:35:11.173Z,101052.22
2022-08-25T15:36:47.257Z,101054.09
2022-08-25T15:38:20.734Z,101056.63
2022-08-25T15:39:52.586Z,101047.09
2022-08-25T15:41:27.749Z,101049.31
2022-08-25T15:42:59.740Z,101057.63
2022-08-25T15:44:31.774Z,101041.97
2022-08-25T15:46:04.089Z,101046.41
2022-08-25T15:47:36.085Z,101044.88
2022-08-25T15:49:08.117Z,101040.78
2022-08-25T15:50:40.167Z,101043.31
2022-08-25T15:52:13.795Z,101043.00
2022-08-25T15:53:48.004Z,101041.63
2022-08-25T15:55:20.126Z,101041.44
2022-08-25T15:56:52.054Z,101039.59
2022-08-25T15:58:24.477Z,101041.66
2022-08-25T15:59:56.734Z,101038.22
2022-08-25T16:01:30.492Z,101043.84
2022-08-25T16:03:03.099Z,101037.69
2022-08-25T16:04:36.351Z,101036.97
2022-08-25T16:06:08.530Z,101044.66
2022-08-25T16:07:40.362Z,101043.28
2022-08-25T16:09:12.140Z,101037.28
2022-08-25T16:10:44.004Z,101037.66
2022-08-25T16:12:15.800Z,101037.84
2022-08-25T16:13:48.701Z,101030.84
2022-08-25T16:15:24.027Z,101025.44
2022-08-25T16:17:00.689Z,101028.09
2022-08-25T16:18:32.481Z,101018.41
2022-08-25T16:20:05.240Z,101025.22
2022-08-25T16:21:42.196Z,101033.72
2022-08-25T16:23:19.627Z,101031.50
2022-08-25T16:24:51.713Z,101036.28
2022-08-25T16:26:24.135Z,101034.22
2022-08-25T16:27:56.379Z,101029.44
2022-08-25T16:29:29.311Z,101025.88
2022-08-25T16:31:10.966Z,101022.84
2022-08-25T16:32:42.759Z,101024.34
2022-08-25T16:34:15.259Z,101028.28
2022-08-25T16:35:47.614Z,101013.09
2022-08-25T16:37:21.572Z,101024.84
2022-08-25T16:38:55.237Z,101017.88
2022-08-25T16:40:27.277Z,101025.72
2022-08-25T16:41:59.113Z,101019.09
2022-08-25T16:43:30.887Z,101018.09
2022-08-25T16:45:03.115Z,101019.94
2022-08-25T16:46:37.546Z,101024.38
2022-08-25T16:48:09.495Z,101028.09
2022-08-25T16:49:41.577Z,101023.00
2022-08-25T16:51:15.182Z,101020.44
2022-08-25T16:53:07.940Z,101024.34
2022-08-25T16:54:58.849Z,101033.47
2022-08-25T16:56:30.903Z,101019.16
2022-08-25T16:58:05.430Z,101027.81
2022-08-25T16:59:37.562Z,101027.31
2022-08-25T17:01:11.592Z,101019.97
2022-08-25T17:02:43.536Z,101023.53
2022-08-25T17:04:17.063Z,101024.22
2022-08-25T17:05:49.720Z,101024.72
2022-08-25T17:07:23.648Z,101027.75
2022-08-25T17:08:56.224Z,101019.09
2022-08-25T17:10:28.716Z,101029.97
2022-08-25T17:12:00.556Z,101021.78
2022-08-25T17:13:32.372Z,101027.50
2022-08-25T17:15:06.146Z,101031.88
2022-08-25T17:16:38.174Z,101031.31
2022-08-25T17:18:11.079Z,101024.66
2022-08-25T17:19:46.060Z,101028.41
2022-08-25T17:21:24.367Z,101023.28
2022-08-25T17:22:56.493Z,101023.09
2022-08-25T17:24:29.441Z,101021.19
2022-08-25T17:26:04.291Z,101023.53
2022-08-25T17:27:36.758Z,101029.56
2022-08-25T17:29:09.018Z,101019.00
2022-08-25T17:30:41.742Z,101024.44
2022-08-25T17:32:13.630Z,101023.75
2022-08-25T17:33:46.165Z,101024.56
2022-08-25T17:35:20.857Z,101027.06
2022-08-25T17:36:54.698Z,101026.84
2022-08-25T17:38:27.438Z,101026.31
2022-08-25T17:40:03.011Z,101031.03
2022-08-25T17:41:37.621Z,101033.38
2022-08-25T17:43:10.230Z,101025.56
2022-08-25T17:44:42.204Z,101029.91
2022-08-25T17:46:14.099Z,101031.19
2022-08-25T17:47:46.374Z,101026.06
2022-08-25T17:49:18.358Z,101031.09
2022-08-25T17:50:50.267Z,101032.28
2022-08-25T17:52:25.418Z,101034.22
2022-08-25T17:53:57.409Z,101027.56
2022-08-25T17:55:29.748Z,101035.84
2022-08-25T17:57:01.716Z,101032.59
2022-08-25T17:58:33.668Z,101036.63
2022-08-25T18:00:10.846Z,101032.53
2022-08-25T18:01:45.465Z,101040.28
2022-08-25T18:03:17.337Z,101042.44
2022-08-25T18:04:49.040Z,101040.81
2022-08-25T18:06:21.267Z,101037.56